createdAt,value
2017-07-30T00:00:24.595Z,99.99
2017-07-30T00:01:24.270Z,99.99
2017-07-30T00:02:24.297Z,99.99
2017-07-30T00:03:24.561Z,99.99
2017-07-30T00:04:24.531Z,99.99
2017-07-30T00:05:24.611Z,99.99
2017-07-30T00:06:24.511Z,99.99
2017-07-30T00:07:24.492Z,99.99
2017-07-30T00:08:24.481Z,99.99
2017-07-30T00:09:24.153Z,99.99
2017-07-30T00:10:24.452Z,99.99
2017-07-30T00:11:24.149Z,99.99
2017-07-30T00:12:24.428Z,99.99
2017-07-30T00:13:24.472Z,99.99
2017-07-30T00:14:24.399Z,99.99
2017-07-30T00:15:24.081Z,99.99
2017-07-30T00:16:24.060Z,99.99
2017-07-30T00:17:24.360Z,99.99
2017-07-30T00:18:24.042Z,99.99
2017-07-30T00:19:24.035Z,99.99
2017-07-30T00:20:24.015Z,99.99
2017-07-30T00:21:24.306Z,99.99
2017-07-30T00:22:23.995Z,99.99
2017-07-30T00:23:24.281Z,99.99
2017-07-30T00:24:24.280Z,99.99
2017-07-30T00:25:24.259Z,99.99
2017-07-30T00:26:24.302Z,99.99
2017-07-30T00:27:24.241Z,99.99
2017-07-30T00:28:24.221Z,99.99
2017-07-30T00:29:24.212Z,99.99
2017-07-30T00:30:24.192Z,99.99
2017-07-30T00:31:24.181Z,99.99
2017-07-30T00:32:24.161Z,99.99
2017-07-30T00:33:24.157Z,99.99
2017-07-30T00:34:24.141Z,99.99
2017-07-30T00:35:24.141Z,99.99
2017-07-30T00:36:24.112Z,99.99
2017-07-30T00:37:24.111Z,99.99
2017-07-30T00:38:23.778Z,99.99
2017-07-30T00:39:24.073Z,99.99
2017-07-30T00:40:24.071Z,99.99
2017-07-30T00:41:24.051Z,99.99
2017-07-30T00:42:24.041Z,99.99
2017-07-30T00:43:23.721Z,99.99
2017-07-30T00:44:24.027Z,99.99
2017-07-30T00:45:24.000Z,99.99
2017-07-30T00:46:23.990Z,99.99
2017-07-30T00:47:23.970Z,99.99
2017-07-30T00:48:23.971Z,99.99
2017-07-30T00:49:23.943Z,99.99
2017-07-30T00:50:23.951Z,99.99
2017-07-30T00:51:23.920Z,99.99
2017-07-30T00:52:23.921Z,99.99
2017-07-30T00:53:23.969Z,99.99
2017-07-30T00:54:23.881Z,99.99
2017-07-30T00:55:23.872Z,99.99
2017-07-30T00:56:23.873Z,99.99
2017-07-30T00:57:23.843Z,99.99
2017-07-30T00:58:24.051Z,99.99
2017-07-30T00:59:23.810Z,99.99
2017-07-30T01:00:23.500Z,99.99
2017-07-30T01:01:23.788Z,99.99
2017-07-30T01:02:23.784Z,99.99
2017-07-30T01:03:23.467Z,99.99
2017-07-30T01:04:23.761Z,99.99
2017-07-30T01:05:23.449Z,99.99
2017-07-30T01:06:23.730Z,99.99
2017-07-30T01:07:23.411Z,99.99
2017-07-30T01:08:23.411Z,99.99
2017-07-30T01:09:23.702Z,99.99
2017-07-30T01:10:23.679Z,99.99
2017-07-30T01:11:23.370Z,99.99
2017-07-30T01:12:23.701Z,99.99
2017-07-30T01:13:23.652Z,99.99
2017-07-30T01:14:23.631Z,99.99
2017-07-30T01:15:23.624Z,99.99
2017-07-30T01:16:23.601Z,99.99
2017-07-30T01:17:23.670Z,99.99
2017-07-30T01:18:23.279Z,99.99
2017-07-30T01:19:23.570Z,99.99
2017-07-30T01:20:23.572Z,99.99
2017-07-30T01:21:23.550Z,99.99
2017-07-30T01:22:23.540Z,99.99
2017-07-30T01:23:23.520Z,99.99
2017-07-30T01:24:23.521Z,99.99
2017-07-30T01:25:23.503Z,99.99
2017-07-30T01:26:23.480Z,99.99
2017-07-30T01:27:23.168Z,99.99
2017-07-30T01:28:23.460Z,99.99
2017-07-30T01:29:23.454Z,99.99
2017-07-30T01:30:23.434Z,99.99
2017-07-30T01:31:23.420Z,99.99
2017-07-30T01:32:23.413Z,99.99
2017-07-30T01:33:23.089Z,99.99
2017-07-30T01:34:23.379Z,99.99
2017-07-30T01:35:23.061Z,99.99
2017-07-30T01:36:23.359Z,99.99
2017-07-30T01:37:23.351Z,99.99
2017-07-30T01:38:23.030Z,99.99
2017-07-30T01:39:23.010Z,99.99
2017-07-30T01:40:23.000Z,99.99
2017-07-30T01:41:23.281Z,99.99
2017-07-30T01:42:23.280Z,99.99
2017-07-30T01:43:23.265Z,99.99
2017-07-30T01:44:22.948Z,99.99
2017-07-30T01:45:23.241Z,99.99
2017-07-30T01:46:23.240Z,99.99
2017-07-30T01:47:22.910Z,99.99
2017-07-30T01:48:22.900Z,99.99
2017-07-30T01:49:22.880Z,99.99
2017-07-30T01:50:22.869Z,99.99
2017-07-30T01:51:22.861Z,99.99
2017-07-30T01:52:23.151Z,99.99
2017-07-30T01:53:23.149Z,99.99
2017-07-30T01:54:23.129Z,99.99
2017-07-30T01:55:22.810Z,99.99
2017-07-30T01:56:23.101Z,99.99
2017-07-30T01:57:22.781Z,99.99
2017-07-30T01:58:22.776Z,99.99
2017-07-30T01:59:23.059Z,99.99
2017-07-30T02:00:23.072Z,99.99
2017-07-30T02:01:23.037Z,99.99
2017-07-30T02:02:22.732Z,99.99
2017-07-30T02:03:23.016Z,99.99
2017-07-30T02:04:23.091Z,99.99
2017-07-30T02:05:22.991Z,99.99
2017-07-30T02:06:22.970Z,99.99
2017-07-30T02:07:22.964Z,99.99
2017-07-30T02:08:23.183Z,99.99
2017-07-30T02:09:22.628Z,99.99
2017-07-30T02:10:22.700Z,99.99
2017-07-30T02:11:22.912Z,99.99
2017-07-30T02:12:22.598Z,99.99
2017-07-30T02:13:22.890Z,99.99
2017-07-30T02:14:22.960Z,99.99
2017-07-30T02:15:22.858Z,99.99
2017-07-30T02:16:22.861Z,99.99
2017-07-30T02:17:22.840Z,99.99
2017-07-30T02:18:22.821Z,99.99
2017-07-30T02:19:22.811Z,99.99
2017-07-30T02:20:22.850Z,99.99
2017-07-30T02:21:22.480Z,99.99
2017-07-30T02:22:22.872Z,99.99
2017-07-30T02:23:22.450Z,99.99
2017-07-30T02:24:22.529Z,99.99
2017-07-30T02:25:22.730Z,99.99
2017-07-30T02:26:22.731Z,99.99
2017-07-30T02:27:22.717Z,99.99
2017-07-30T02:28:22.701Z,99.99
2017-07-30T02:29:22.680Z,99.99
2017-07-30T02:30:22.407Z,99.99
2017-07-30T02:31:22.339Z,99.99
2017-07-30T02:32:22.339Z,99.99
2017-07-30T02:33:22.671Z,99.99
2017-07-30T02:34:22.297Z,99.99
2017-07-30T02:35:22.683Z,99.99
2017-07-30T02:36:22.590Z,99.99
2017-07-30T02:37:22.641Z,99.99
2017-07-30T02:38:22.250Z,99.99
2017-07-30T02:39:22.542Z,99.99
2017-07-30T02:40:22.540Z,99.99
2017-07-30T02:41:22.539Z,99.99
2017-07-30T02:42:22.205Z,99.99
2017-07-30T02:43:22.498Z,99.99
2017-07-30T02:44:22.480Z,99.99
2017-07-30T02:45:22.469Z,99.99
2017-07-30T02:46:22.459Z,99.99
2017-07-30T02:47:22.436Z,99.99
2017-07-30T02:48:22.429Z,99.99
2017-07-30T02:49:22.428Z,99.99
2017-07-30T02:50:22.400Z,99.99
2017-07-30T02:51:22.392Z,99.99
2017-07-30T02:52:22.378Z,99.99
2017-07-30T02:53:22.361Z,99.99
2017-07-30T02:54:22.349Z,99.99
2017-07-30T02:55:22.020Z,99.99
2017-07-30T02:56:22.019Z,99.99
2017-07-30T02:57:22.012Z,99.99
2017-07-30T02:58:21.990Z,99.99
2017-07-30T02:59:21.982Z,99.99
2017-07-30T03:00:22.269Z,99.99
2017-07-30T03:01:22.258Z,99.99
2017-07-30T03:02:21.939Z,99.99
2017-07-30T03:03:21.932Z,99.99
2017-07-30T03:04:22.218Z,99.99
2017-07-30T03:05:21.899Z,99.99
2017-07-30T03:06:21.882Z,99.99
2017-07-30T03:07:22.171Z,99.99
2017-07-30T03:08:21.862Z,99.99
2017-07-30T03:09:22.151Z,99.99
2017-07-30T03:10:21.830Z,99.99
2017-07-30T03:11:22.132Z,99.99
2017-07-30T03:12:21.809Z,99.99
2017-07-30T03:13:22.113Z,99.99
2017-07-30T03:14:22.089Z,99.99
2017-07-30T03:15:22.071Z,99.99
2017-07-30T03:16:21.762Z,99.99
2017-07-30T03:17:21.740Z,99.99
2017-07-30T03:18:22.033Z,99.99
2017-07-30T03:19:22.019Z,99.99
2017-07-30T03:20:21.999Z,99.99
2017-07-30T03:21:21.990Z,99.99
2017-07-30T03:22:21.982Z,99.99
2017-07-30T03:23:21.961Z,99.99
2017-07-30T03:24:21.955Z,99.99
2017-07-30T03:25:21.941Z,99.99
2017-07-30T03:26:21.624Z,99.99
2017-07-30T03:27:21.910Z,99.99
2017-07-30T03:28:21.594Z,99.99
2017-07-30T03:29:21.880Z,99.99
2017-07-30T03:30:21.569Z,99.99
2017-07-30T03:31:21.558Z,99.99
2017-07-30T03:32:21.846Z,99.99
2017-07-30T03:33:21.832Z,99.99
2017-07-30T03:34:21.815Z,99.99
2017-07-30T03:35:21.802Z,99.99
2017-07-30T03:36:21.791Z,99.99
2017-07-30T03:37:21.772Z,99.99
2017-07-30T03:38:21.772Z,99.99
2017-07-30T03:39:21.452Z,99.99
2017-07-30T03:40:21.738Z,99.99
2017-07-30T03:41:21.730Z,99.99
2017-07-30T03:42:21.421Z,99.99
2017-07-30T03:43:21.698Z,99.99
2017-07-30T03:44:21.697Z,99.99
2017-07-30T03:45:21.692Z,99.99
2017-07-30T03:46:21.659Z,99.99
2017-07-30T03:47:21.653Z,99.99
2017-07-30T03:48:21.650Z,99.99
2017-07-30T03:49:21.621Z,99.99
2017-07-30T03:50:21.612Z,99.99
2017-07-30T03:51:21.609Z,99.99
2017-07-30T03:52:21.291Z,99.99
2017-07-30T03:53:21.574Z,99.99
2017-07-30T03:54:21.548Z,99.99
2017-07-30T03:55:21.551Z,99.99
2017-07-30T03:56:21.222Z,99.99
2017-07-30T03:57:21.519Z,99.99
2017-07-30T03:58:21.503Z,99.99
2017-07-30T03:59:21.492Z,99.99
2017-07-30T04:00:21.482Z,99.99
2017-07-30T04:01:21.462Z,99.99
2017-07-30T04:02:21.142Z,99.99
2017-07-30T04:03:21.433Z,99.99
2017-07-30T04:04:21.116Z,99.99
2017-07-30T04:05:21.412Z,99.99
2017-07-30T04:06:21.390Z,99.99
2017-07-30T04:07:21.371Z,99.99
2017-07-30T04:08:21.370Z,99.99
2017-07-30T04:09:21.053Z,99.99
2017-07-30T04:10:21.338Z,99.99
2017-07-30T04:11:21.328Z,99.99
2017-07-30T04:12:21.015Z,99.99
2017-07-30T04:13:21.302Z,99.99
2017-07-30T04:14:21.381Z,99.99
2017-07-30T04:15:20.970Z,99.99
2017-07-30T04:16:21.261Z,99.99
2017-07-30T04:17:21.244Z,99.99
2017-07-30T04:18:21.242Z,99.99
2017-07-30T04:19:21.216Z,99.99
2017-07-30T04:20:20.902Z,99.99
2017-07-30T04:21:21.225Z,99.99
2017-07-30T04:22:21.182Z,99.99
2017-07-30T04:23:21.174Z,99.99
2017-07-30T04:24:21.172Z,99.99
2017-07-30T04:25:21.146Z,99.99
2017-07-30T04:26:21.132Z,99.99
2017-07-30T04:27:20.801Z,99.99
2017-07-30T04:28:21.102Z,99.99
2017-07-30T04:29:20.783Z,99.99
2017-07-30T04:30:20.771Z,99.99
2017-07-30T04:31:20.749Z,99.99
2017-07-30T04:32:21.044Z,99.99
2017-07-30T04:33:20.724Z,99.99
2017-07-30T04:34:21.023Z,99.99
2017-07-30T04:35:20.703Z,99.99
2017-07-30T04:36:21.002Z,99.99
2017-07-30T04:37:20.682Z,99.99
2017-07-30T04:38:20.673Z,99.99
2017-07-30T04:39:20.654Z,99.99
2017-07-30T04:40:20.648Z,99.99
2017-07-30T04:41:20.622Z,99.99
2017-07-30T04:42:20.649Z,99.99
2017-07-30T04:43:20.595Z,99.99
2017-07-30T04:44:20.592Z,99.99
2017-07-30T04:45:20.872Z,99.99
2017-07-30T04:46:20.961Z,99.99
2017-07-30T04:47:20.550Z,99.99
2017-07-30T04:48:20.543Z,99.99
2017-07-30T04:49:20.832Z,99.99
2017-07-30T04:50:20.503Z,99.99
2017-07-30T04:51:20.496Z,99.99
2017-07-30T04:52:20.551Z,99.99
2017-07-30T04:53:20.462Z,99.99
2017-07-30T04:54:20.755Z,99.99
2017-07-30T04:55:20.741Z,99.99
2017-07-30T04:56:20.432Z,99.99
2017-07-30T04:57:20.414Z,99.99
2017-07-30T04:58:20.714Z,99.99
2017-07-30T04:59:20.703Z,99.99
2017-07-30T05:00:20.776Z,99.99
2017-07-30T05:01:20.672Z,99.99
2017-07-30T05:02:20.700Z,99.99
2017-07-30T05:03:20.660Z,99.99
2017-07-30T05:04:20.720Z,99.99
2017-07-30T05:05:20.609Z,99.99
2017-07-30T05:06:20.611Z,99.99
2017-07-30T05:07:20.587Z,99.99
2017-07-30T05:08:20.269Z,99.99
2017-07-30T05:09:20.561Z,99.99
2017-07-30T05:10:20.551Z,99.99
2017-07-30T05:11:20.234Z,99.99
2017-07-30T05:12:20.520Z,99.99
2017-07-30T05:13:20.201Z,99.99
2017-07-30T05:14:20.190Z,99.99
2017-07-30T05:15:20.181Z,99.99
2017-07-30T05:16:20.468Z,99.99
2017-07-30T05:17:20.451Z,99.99
2017-07-30T05:18:20.432Z,99.99
2017-07-30T05:19:20.442Z,99.99
2017-07-30T05:20:20.419Z,99.99
2017-07-30T05:21:20.093Z,99.99
2017-07-30T05:22:20.392Z,99.99
2017-07-30T05:23:20.422Z,99.99
2017-07-30T05:24:20.064Z,99.99
2017-07-30T05:25:20.351Z,99.99
2017-07-30T05:26:20.342Z,99.99
2017-07-30T05:27:20.342Z,99.99
2017-07-30T05:28:20.340Z,99.99
2017-07-30T05:29:20.003Z,99.99
2017-07-30T05:30:20.279Z,99.99
2017-07-30T05:31:20.266Z,99.99
2017-07-30T05:32:20.262Z,99.99
2017-07-30T05:33:20.247Z,99.99
2017-07-30T05:34:20.226Z,99.99
2017-07-30T05:35:20.231Z,99.99
2017-07-30T05:36:19.903Z,99.99
2017-07-30T05:37:20.194Z,99.99
2017-07-30T05:38:19.874Z,99.99
2017-07-30T05:39:20.179Z,99.99
2017-07-30T05:40:20.153Z,99.99
2017-07-30T05:41:20.144Z,99.99
2017-07-30T05:42:19.822Z,99.99
2017-07-30T05:43:20.114Z,99.99
2017-07-30T05:44:19.801Z,99.99
2017-07-30T05:45:19.794Z,99.99
2017-07-30T05:46:20.092Z,99.99
2017-07-30T05:47:20.069Z,99.99
2017-07-30T05:48:20.053Z,99.99
2017-07-30T05:49:19.730Z,99.99
2017-07-30T05:50:20.034Z,99.99
2017-07-30T05:51:20.030Z,99.99
2017-07-30T05:52:20.011Z,99.99
2017-07-30T05:53:19.993Z,99.99
2017-07-30T05:54:19.978Z,99.99
2017-07-30T05:55:19.971Z,99.99
2017-07-30T05:56:19.650Z,99.99
2017-07-30T05:57:19.931Z,99.99
2017-07-30T05:58:19.624Z,99.99
2017-07-30T05:59:19.621Z,99.99
2017-07-30T06:00:19.914Z,99.99
2017-07-30T06:01:19.891Z,99.99
2017-07-30T06:02:19.874Z,99.99
2017-07-30T06:03:19.874Z,99.99
2017-07-30T06:04:19.553Z,99.99
2017-07-30T06:05:19.533Z,99.99
2017-07-30T06:06:19.522Z,99.99
2017-07-30T06:07:19.824Z,99.99
2017-07-30T06:08:19.491Z,99.99
2017-07-30T06:09:19.790Z,99.99
2017-07-30T06:10:19.781Z,99.99
2017-07-30T06:11:19.471Z,99.99
2017-07-30T06:12:19.750Z,99.99
2017-07-30T06:13:19.440Z,99.99
2017-07-30T06:14:19.726Z,99.99
2017-07-30T06:15:19.721Z,99.99
2017-07-30T06:16:19.701Z,99.99
2017-07-30T06:17:19.381Z,99.99
2017-07-30T06:18:19.371Z,99.99
2017-07-30T06:19:19.662Z,99.99
2017-07-30T06:20:19.353Z,99.99
2017-07-30T06:21:19.642Z,99.99
2017-07-30T06:22:19.329Z,99.99
2017-07-30T06:23:19.615Z,99.99
2017-07-30T06:24:19.612Z,99.99
2017-07-30T06:25:19.292Z,99.99
2017-07-30T06:26:19.581Z,99.99
2017-07-30T06:27:19.569Z,99.99
2017-07-30T06:28:19.257Z,99.99
2017-07-30T06:29:19.551Z,99.99
2017-07-30T06:30:19.532Z,99.99
2017-07-30T06:31:19.531Z,99.99
2017-07-30T06:32:19.520Z,99.99
2017-07-30T06:33:19.511Z,99.99
2017-07-30T06:34:19.515Z,99.99
2017-07-30T06:35:19.188Z,99.99
2017-07-30T06:36:19.471Z,99.99
2017-07-30T06:37:19.456Z,99.99
2017-07-30T06:38:19.451Z,99.99
2017-07-30T06:39:19.441Z,99.99
2017-07-30T06:40:19.440Z,99.99
2017-07-30T06:41:19.424Z,99.99
2017-07-30T06:42:19.402Z,99.99
2017-07-30T06:43:19.405Z,99.99
2017-07-30T06:44:19.379Z,99.99
2017-07-30T06:45:19.372Z,99.99
2017-07-30T06:46:19.362Z,99.99
2017-07-30T06:47:19.043Z,99.99
2017-07-30T06:48:19.332Z,99.99
2017-07-30T06:49:19.338Z,99.99
2017-07-30T06:50:19.562Z,99.99
2017-07-30T06:51:19.302Z,99.99
2017-07-30T06:52:19.292Z,99.99
2017-07-30T06:53:19.276Z,99.99
2017-07-30T06:54:19.273Z,99.99
2017-07-30T06:55:19.256Z,99.99
2017-07-30T06:56:19.262Z,99.99
2017-07-30T06:57:19.244Z,99.99
2017-07-30T06:58:19.228Z,99.99
2017-07-30T06:59:19.223Z,99.99
2017-07-30T07:00:19.203Z,99.99
2017-07-30T07:01:19.216Z,99.99
2017-07-30T07:02:19.194Z,99.99
2017-07-30T07:03:19.182Z,99.99
2017-07-30T07:04:19.177Z,99.99
2017-07-30T07:05:19.162Z,99.99
2017-07-30T07:06:18.942Z,99.99
2017-07-30T07:07:19.135Z,99.99
2017-07-30T07:08:19.231Z,99.99
2017-07-30T07:09:19.110Z,99.99
2017-07-30T07:10:19.108Z,99.99
2017-07-30T07:11:19.091Z,99.99
2017-07-30T07:12:19.092Z,99.99
2017-07-30T07:13:19.102Z,99.99
2017-07-30T07:14:19.065Z,99.99
2017-07-30T07:15:18.739Z,99.99
2017-07-30T07:16:19.143Z,99.99
2017-07-30T07:17:19.071Z,99.99
2017-07-30T07:18:19.028Z,99.99
2017-07-30T07:19:19.062Z,99.99
2017-07-30T07:20:19.043Z,99.99
2017-07-30T07:21:19.002Z,99.99
2017-07-30T07:22:18.970Z,99.99
2017-07-30T07:23:18.659Z,99.99
2017-07-30T07:24:18.643Z,99.99
2017-07-30T07:25:18.991Z,99.99
2017-07-30T07:26:18.620Z,99.99
2017-07-30T07:27:18.921Z,99.99
2017-07-30T07:28:18.911Z,99.99
2017-07-30T07:29:18.900Z,99.99
2017-07-30T07:30:18.891Z,99.99
2017-07-30T07:31:18.880Z,99.99
2017-07-30T07:32:18.871Z,99.99
2017-07-30T07:33:18.857Z,99.99
2017-07-30T07:34:18.841Z,99.99
2017-07-30T07:35:18.541Z,99.27
2017-07-30T07:36:18.841Z,99.07
2017-07-30T07:37:18.811Z,97.47
2017-07-30T07:38:18.801Z,97.91
2017-07-30T07:39:18.789Z,97.47
2017-07-30T07:40:18.780Z,98
2017-07-30T07:41:18.778Z,97.23
2017-07-30T07:42:18.453Z,97.03
2017-07-30T07:43:18.754Z,97.13
2017-07-30T07:44:18.740Z,96.26
2017-07-30T07:45:18.732Z,96.75
2017-07-30T07:46:18.419Z,95.87
2017-07-30T07:47:18.711Z,95.34
2017-07-30T07:48:18.700Z,96.16
2017-07-30T07:49:18.687Z,95.58
2017-07-30T07:50:18.671Z,95.78
2017-07-30T07:51:18.672Z,95.63
2017-07-30T07:52:18.662Z,95.39
2017-07-30T07:53:18.655Z,95.1
2017-07-30T07:54:18.339Z,95.48
2017-07-30T07:55:18.635Z,95.39
2017-07-30T07:56:18.620Z,95.58
2017-07-30T07:57:18.613Z,94.81
2017-07-30T07:58:18.300Z,95.1
2017-07-30T07:59:18.288Z,95.48
2017-07-30T08:00:18.575Z,94.81
2017-07-30T08:01:18.582Z,94.13
2017-07-30T08:02:18.259Z,93.5
2017-07-30T08:03:18.550Z,93.45
2017-07-30T08:04:18.244Z,93.7
2017-07-30T08:05:18.233Z,93.84
2017-07-30T08:06:18.211Z,92.86
2017-07-30T08:07:18.510Z,91.71
2017-07-30T08:08:18.550Z,90.98
2017-07-30T08:09:18.491Z,90.88
2017-07-30T08:10:18.582Z,90.01
2017-07-30T08:11:18.469Z,89.28
2017-07-30T08:12:18.520Z,89.28
2017-07-30T08:13:18.451Z,88.6
2017-07-30T08:14:18.490Z,89.28
2017-07-30T08:15:18.438Z,89.57
2017-07-30T08:16:18.560Z,88.99
2017-07-30T08:17:18.406Z,88.41
2017-07-30T08:18:18.399Z,88.99
2017-07-30T08:19:18.387Z,88.79
2017-07-30T08:20:18.391Z,88.99
2017-07-30T08:21:18.370Z,88.7
2017-07-30T08:22:18.372Z,89.09
2017-07-30T08:23:18.349Z,88.99
2017-07-30T08:24:18.340Z,89.72
2017-07-30T08:25:18.331Z,89.62
2017-07-30T08:26:18.011Z,89.67
2017-07-30T08:27:18.309Z,90.5
2017-07-30T08:28:18.305Z,89.96
2017-07-30T08:29:18.290Z,89.57
2017-07-30T08:30:18.291Z,89.86
2017-07-30T08:31:18.269Z,89.96
2017-07-30T08:32:18.261Z,90.06
2017-07-30T08:33:18.256Z,90.44
2017-07-30T08:34:17.933Z,90.54
2017-07-30T08:35:18.231Z,90.34
2017-07-30T08:36:18.222Z,90.44
2017-07-30T08:37:18.222Z,89.96
2017-07-30T08:38:18.221Z,89.67
2017-07-30T08:39:18.202Z,90.06
2017-07-30T08:40:18.203Z,90.44
2017-07-30T08:41:18.193Z,90.34
2017-07-30T08:42:18.165Z,90.97
2017-07-30T08:43:18.164Z,90.06
2017-07-30T08:44:18.151Z,90.64
2017-07-30T08:45:17.832Z,90.54
2017-07-30T08:46:18.142Z,90.48
2017-07-30T08:47:18.120Z,90.44
2017-07-30T08:48:18.112Z,90.83
2017-07-30T08:49:18.110Z,90.93
2017-07-30T08:50:18.091Z,90.44
2017-07-30T08:51:18.080Z,90.44
2017-07-30T08:52:17.771Z,90.06
2017-07-30T08:53:18.061Z,90.44
2017-07-30T08:54:18.054Z,90
2017-07-30T08:55:18.043Z,90.2
2017-07-30T08:56:18.036Z,90.58
2017-07-30T08:57:18.022Z,89.81
2017-07-30T08:58:17.713Z,90.39
2017-07-30T08:59:17.699Z,90.05
2017-07-30T09:00:17.989Z,88.54
2017-07-30T09:01:17.981Z,88.93
2017-07-30T09:02:17.979Z,88.79
2017-07-30T09:03:17.659Z,89.07
2017-07-30T09:04:17.963Z,88.73
2017-07-30T09:05:17.961Z,88.54
2017-07-30T09:06:17.640Z,88.83
2017-07-30T09:07:17.620Z,89.22
2017-07-30T09:08:17.922Z,89.56
2017-07-30T09:09:17.614Z,89.47
2017-07-30T09:10:17.912Z,89.76
2017-07-30T09:11:17.893Z,89.85
2017-07-30T09:12:17.585Z,89.17
2017-07-30T09:13:17.880Z,89.22
2017-07-30T09:14:17.875Z,90.34
2017-07-30T09:15:17.558Z,90.73
2017-07-30T09:16:17.871Z,90.44
2017-07-30T09:17:17.533Z,91.17
2017-07-30T09:18:17.838Z,91.55
2017-07-30T09:19:17.841Z,91.65
2017-07-30T09:20:17.819Z,91.07
2017-07-30T09:21:17.822Z,91.11
2017-07-30T09:22:17.493Z,91.21
2017-07-30T09:23:17.791Z,91.11
2017-07-30T09:24:17.781Z,90.63
2017-07-30T09:25:17.777Z,91.11
2017-07-30T09:26:17.773Z,91.89
2017-07-30T09:27:17.761Z,90.97
2017-07-30T09:28:17.739Z,90.68
2017-07-30T09:29:17.430Z,90.34
2017-07-30T09:30:17.430Z,90.16
2017-07-30T09:31:17.729Z,90.16
2017-07-30T09:32:17.407Z,90.1
2017-07-30T09:33:17.391Z,90
2017-07-30T09:34:17.389Z,89.61
2017-07-30T09:35:17.681Z,89.81
2017-07-30T09:36:17.660Z,89.61
2017-07-30T09:37:17.659Z,89.13
2017-07-30T09:38:17.660Z,89.86
2017-07-30T09:39:17.404Z,89.23
2017-07-30T09:40:17.320Z,89.13
2017-07-30T09:41:17.624Z,87.23
2017-07-30T09:42:17.611Z,86.6
2017-07-30T09:43:17.601Z,86.54
2017-07-30T09:44:17.606Z,86.15
2017-07-30T09:45:17.660Z,84.83
2017-07-30T09:46:17.573Z,85.22
2017-07-30T09:47:17.661Z,84.35
2017-07-30T09:48:17.560Z,84.58
2017-07-30T09:49:17.611Z,84
2017-07-30T09:50:17.549Z,82.97
2017-07-30T09:51:17.541Z,81.65
2017-07-30T09:52:17.225Z,82.04
2017-07-30T09:53:17.542Z,82.23
2017-07-30T09:54:17.522Z,81.07
2017-07-30T09:55:17.511Z,81.98
2017-07-30T09:56:17.217Z,81.01
2017-07-30T09:57:17.501Z,80.07
2017-07-30T09:58:17.500Z,80.62
2017-07-30T09:59:17.504Z,80.82
2017-07-30T10:00:17.491Z,80.82
2017-07-30T10:01:17.201Z,80.62
2017-07-30T10:02:17.170Z,80.97
2017-07-30T10:03:17.481Z,82.68
2017-07-30T10:04:17.461Z,82.49
2017-07-30T10:05:17.150Z,82.49
2017-07-30T10:06:17.473Z,81.56
2017-07-30T10:07:17.451Z,81.07
2017-07-30T10:08:17.451Z,82.78
2017-07-30T10:09:17.452Z,83.51
2017-07-30T10:10:17.426Z,83.42
2017-07-30T10:11:17.439Z,83.76
2017-07-30T10:12:17.119Z,83.67
2017-07-30T10:13:17.411Z,84.06
2017-07-30T10:14:17.105Z,83.76
2017-07-30T10:15:17.399Z,83.51
2017-07-30T10:16:17.401Z,83.71
2017-07-30T10:17:17.387Z,83.67
2017-07-30T10:18:17.381Z,84.35
2017-07-30T10:19:17.062Z,84.45
2017-07-30T10:20:17.057Z,84.35
2017-07-30T10:21:17.348Z,84.45
2017-07-30T10:22:17.036Z,84.55
2017-07-30T10:23:17.341Z,84.25
2017-07-30T10:24:17.340Z,84.41
2017-07-30T10:25:17.441Z,84.5
2017-07-30T10:26:17.010Z,84.99
2017-07-30T10:27:16.994Z,84.83
2017-07-30T10:28:17.032Z,84.45
2017-07-30T10:29:17.344Z,83.86
2017-07-30T10:30:17.281Z,83.96
2017-07-30T10:31:17.282Z,83.81
2017-07-30T10:32:16.962Z,83.71
2017-07-30T10:33:17.268Z,83.22
2017-07-30T10:34:16.942Z,83.46
2017-07-30T10:35:17.238Z,82.58
2017-07-30T10:36:17.239Z,83.01
2017-07-30T10:37:17.240Z,83.07
2017-07-30T10:38:17.222Z,82.87
2017-07-30T10:39:17.207Z,82.45
2017-07-30T10:40:17.200Z,82.1
2017-07-30T10:41:17.190Z,82.68
2017-07-30T10:42:16.871Z,82.68
2017-07-30T10:43:17.167Z,82.97
2017-07-30T10:44:17.169Z,82.87
2017-07-30T10:45:17.150Z,82.49
2017-07-30T10:46:16.853Z,83.07
2017-07-30T10:47:16.834Z,83.03
2017-07-30T10:48:17.124Z,83.42
2017-07-30T10:49:16.820Z,83.81
2017-07-30T10:50:16.810Z,83.12
2017-07-30T10:51:17.102Z,82.78
2017-07-30T10:52:17.110Z,82.68
2017-07-30T10:53:17.101Z,82.93
2017-07-30T10:54:17.078Z,83.37
2017-07-30T10:55:17.070Z,83.86
2017-07-30T10:56:17.062Z,83.18
2017-07-30T10:57:17.059Z,83.28
2017-07-30T10:58:17.058Z,83.09
2017-07-30T10:59:17.041Z,83.28
2017-07-30T11:00:17.039Z,83.37
2017-07-30T11:01:17.031Z,83.47
2017-07-30T11:02:17.056Z,83.32
2017-07-30T11:03:17.120Z,82.68
2017-07-30T11:04:16.691Z,82.49
2017-07-30T11:05:16.998Z,81.75
2017-07-30T11:06:16.994Z,81.36
2017-07-30T11:07:16.994Z,80.72
2017-07-30T11:08:16.982Z,80.52
2017-07-30T11:09:17.007Z,80.72
2017-07-30T11:10:16.959Z,81.26
2017-07-30T11:11:16.954Z,81.02
2017-07-30T11:12:16.952Z,81.51
2017-07-30T11:13:16.921Z,80.83
2017-07-30T11:14:16.927Z,80.74
2017-07-30T11:15:16.908Z,80.64
2017-07-30T11:16:16.985Z,79.32
2017-07-30T11:17:16.899Z,79.41
2017-07-30T11:18:16.893Z,78.83
2017-07-30T11:19:16.562Z,79.02
2017-07-30T11:20:16.570Z,79.22
2017-07-30T11:21:16.858Z,78.92
2017-07-30T11:22:16.873Z,79.12
2017-07-30T11:23:16.854Z,78.09
2017-07-30T11:24:16.862Z,78.38
2017-07-30T11:25:16.835Z,78.73
2017-07-30T11:26:16.844Z,78.53
2017-07-30T11:27:16.827Z,78.83
2017-07-30T11:28:16.805Z,78.01
2017-07-30T11:29:16.822Z,77.47
2017-07-30T11:30:16.793Z,78.11
2017-07-30T11:31:16.794Z,78.85
2017-07-30T11:32:16.771Z,78.27
2017-07-30T11:33:16.764Z,78.85
2017-07-30T11:34:16.765Z,78.89
2017-07-30T11:35:16.744Z,78.89
2017-07-30T11:36:16.745Z,79.18
2017-07-30T11:37:16.738Z,78.99
2017-07-30T11:38:16.719Z,78.53
2017-07-30T11:39:16.713Z,77.7
2017-07-30T11:40:16.731Z,77.5
2017-07-30T11:41:16.713Z,76.34
2017-07-30T11:42:16.703Z,76.43
2017-07-30T11:43:16.677Z,74.82
2017-07-30T11:44:16.679Z,74.56
2017-07-30T11:45:16.688Z,74.46
2017-07-30T11:46:16.685Z,74.43
2017-07-30T11:47:16.657Z,72.9
2017-07-30T11:48:16.340Z,72.61
2017-07-30T11:49:16.640Z,72.67
2017-07-30T11:50:16.621Z,72.77
2017-07-30T11:51:16.317Z,71.89
2017-07-30T11:52:16.609Z,71.89
2017-07-30T11:53:16.312Z,70.86
2017-07-30T11:54:16.601Z,70.95
2017-07-30T11:55:16.284Z,71.15
2017-07-30T11:56:16.282Z,72.12
2017-07-30T11:57:16.593Z,71.34
2017-07-30T11:58:16.259Z,71.44
2017-07-30T11:59:16.580Z,71.73
2017-07-30T12:00:16.550Z,72.61
2017-07-30T12:01:16.561Z,71.34
2017-07-30T12:02:16.550Z,71.25
2017-07-30T12:03:16.531Z,70.5
2017-07-30T12:04:16.519Z,69.56
2017-07-30T12:05:16.511Z,68.19
2017-07-30T12:06:16.201Z,66.44
2017-07-30T12:07:16.499Z,66.05
2017-07-30T12:08:16.179Z,66.44
2017-07-30T12:09:16.487Z,65.85
2017-07-30T12:10:16.477Z,66.44
2017-07-30T12:11:16.482Z,66.79
2017-07-30T12:12:16.469Z,67.18
2017-07-30T12:13:16.451Z,67.12
2017-07-30T12:14:16.461Z,67.02
2017-07-30T12:15:16.160Z,66.83
2017-07-30T12:16:16.443Z,66.53
2017-07-30T12:17:16.441Z,66.05
2017-07-30T12:18:16.422Z,64.84
2017-07-30T12:19:16.411Z,65.78
2017-07-30T12:20:16.103Z,66.83
2017-07-30T12:21:16.408Z,66.89
2017-07-30T12:22:16.401Z,67.38
2017-07-30T12:23:16.392Z,66.02
2017-07-30T12:24:16.394Z,66.6
2017-07-30T12:25:16.070Z,66.96
2017-07-30T12:26:16.378Z,66.86
2017-07-30T12:27:16.349Z,67.18
2017-07-30T12:28:16.349Z,67.67
2017-07-30T12:29:16.351Z,67.96
2017-07-30T12:30:16.330Z,67.67
2017-07-30T12:31:16.329Z,67.86
2017-07-30T12:32:16.314Z,67.86
2017-07-30T12:33:16.301Z,67.57
2017-07-30T12:34:16.301Z,67.57
2017-07-30T12:35:16.301Z,66.89
2017-07-30T12:36:16.318Z,66.79
2017-07-30T12:37:16.272Z,66.89
2017-07-30T12:38:16.265Z,66.89
2017-07-30T12:39:16.281Z,66.37
2017-07-30T12:40:16.260Z,66.6
2017-07-30T12:41:16.251Z,66.5
2017-07-30T12:42:16.227Z,66.89
2017-07-30T12:43:15.916Z,66.99
2017-07-30T12:44:15.915Z,66.5
2017-07-30T12:45:16.210Z,66.79
2017-07-30T12:46:16.194Z,67.18
2017-07-30T12:47:16.190Z,66.99
2017-07-30T12:48:16.193Z,66.89
2017-07-30T12:49:16.177Z,66.56
2017-07-30T12:50:15.862Z,66.08
2017-07-30T12:51:16.149Z,66.11
2017-07-30T12:52:16.157Z,66.11
2017-07-30T12:53:16.140Z,66.11